West Lima, Wisconsin
Current Conditions -  °F | °C
As of 10:15 AM on Saturday 25 Oct 2014 (Local Time) from KY51 Reporting Station
Clear Clear  
Wind Chill: 57°   Ceiling: Unl
Heat Index: 57°   Visibility: 10mi
Dew Point: 40°   Wind: 12mph
Humidity: 53%   Direction: 310°NW
Pressure: 30.01"   Gusts: 16mph
Location:  43.6192°N, 90.6193°W
Report Text: KY51 251515Z AUTO 31010G14KT 10SM CLR 14/05 A3001 RMK AO1 T01400045
Loading
Personal Weather Stations






























Interactive Weather Map
Tropical Storm Tracking
New forecast layout! Learn more

10-Day Weather Forecast

Advertisements
Track Severe Weather on mobile